sensor_id;sensor_type;location;lat;lon;timestamp;pressure;altitude;pressure_sealevel;temperature;humidity
22283;BME280;11310;51.528;21.204;2023-06-14T00:00:46;100081.63;;;13.96;100.00
22283;BME280;11310;51.528;21.204;2023-06-14T00:03:16;100073.59;;;13.97;100.00
22283;BME280;11310;51.528;21.204;2023-06-14T00:05:49;100071.88;;;13.96;100.00
22283;BME280;11310;51.528;21.204;2023-06-14T00:08:18;100069.16;;;13.98;100.00
22283;BME280;11310;51.528;21.204;2023-06-14T00:10:49;100066.44;;;13.99;100.00
22283;BME280;11310;51.528;21.204;2023-06-14T00:13:19;100067.31;;;14.00;100.00
22283;BME280;11310;51.528;21.204;2023-06-14T00:15:48;100072.47;;;14.01;100.00
22283;BME280;11310;51.528;21.204;2023-06-14T00:18:17;100069.00;;;14.01;100.00
22283;BME280;11310;51.528;21.204;2023-06-14T00:20:46;100063.72;;;14.01;100.00
22283;BME280;11310;51.528;21.204;2023-06-14T00:23:15;100064.47;;;14.03;100.00
22283;BME280;11310;51.528;21.204;2023-06-14T00:25:44;100061.81;;;14.03;100.00
22283;BME280;11310;51.528;21.204;2023-06-14T00:28:14;100059.09;;;14.04;100.00
22283;BME280;11310;51.528;21.204;2023-06-14T00:30:45;100064.22;;;14.07;100.00
22283;BME280;11310;51.528;21.204;2023-06-14T00:33:14;100058.84;;;14.09;100.00
22283;BME280;11310;51.528;21.204;2023-06-14T00:35:49;100062.31;;;14.09;100.00
22283;BME280;11310;51.528;21.204;2023-06-14T00:38:20;100053.66;;;14.07;100.00
22283;BME280;11310;51.528;21.204;2023-06-14T00:40:53;100051.94;;;14.06;100.00
22283;BME280;11310;51.528;21.204;2023-06-14T00:43:23;100050.16;;;14.07;100.00
22283;BME280;11310;51.528;21.204;2023-06-14T00:45:54;100045.66;;;14.09;100.00
22283;BME280;11310;51.528;21.204;2023-06-14T00:48:28;100045.66;;;14.09;100.00
22283;BME280;11310;51.528;21.204;2023-06-14T00:51:00;100051.94;;;14.06;100.00
22283;BME280;11310;51.528;21.204;2023-06-14T00:53:34;100045.66;;;14.09;100.00
22283;BME280;11310;51.528;21.204;2023-06-14T00:56:03;100044.78;;;14.08;100.00
22283;BME280;11310;51.528;21.204;2023-06-14T00:58:33;100043.09;;;14.07;100.00
22283;BME280;11310;51.528;21.204;2023-06-14T01:01:03;100042.16;;;14.08;100.00
22283;BME280;11310;51.528;21.204;2023-06-14T01:03:34;100041.22;;;14.09;100.00
22283;BME280;11310;51.528;21.204;2023-06-14T01:06:14;100033.28;;;14.09;100.00
22283;BME280;11310;51.528;21.204;2023-06-14T01:08:58;100032.81;;;14.17;100.00
22283;BME280;11310;51.528;21.204;2023-06-14T01:11:36;100024.81;;;14.18;100.00
22283;BME280;11310;51.528;21.204;2023-06-14T01:14:09;100032.50;;;14.23;100.00
22283;BME280;11310;51.528;21.204;2023-06-14T01:16:41;100031.66;;;14.22;100.00
22283;BME280;11310;51.528;21.204;2023-06-14T01:19:15;100033.16;;;14.26;100.00
22283;BME280;11310;51.528;21.204;2023-06-14T01:21:46;100031.66;;;14.22;100.00
22283;BME280;11310;51.528;21.204;2023-06-14T01:24:40;100032.75;;;14.18;100.00
22283;BME280;11310;51.528;21.204;2023-06-14T01:27:45;100029.97;;;14.21;100.00
22283;BME280;11310;51.528;21.204;2023-06-14T01:30:51;100037.78;;;14.23;100.00
22283;BME280;11310;51.528;21.204;2023-06-14T01:33:21;100037.66;;;14.24;100.00
22283;BME280;11310;51.528;21.204;2023-06-14T01:35:53;100029.88;;;14.23;100.00
22283;BME280;11310;51.528;21.204;2023-06-14T01:38:24;100029.59;;;14.27;100.00
22283;BME280;11310;51.528;21.204;2023-06-14T01:41:02;100023.56;;;14.25;100.00
22283;BME280;11310;51.528;21.204;2023-06-14T01:43:39;100029.00;;;14.22;100.00
22283;BME280;11310;51.528;21.204;2023-06-14T01:46:09;100015.91;;;14.21;100.00
22283;BME280;11310;51.528;21.204;2023-06-14T01:48:38;100022.78;;;14.23;100.00
22283;BME280;11310;51.528;21.204;2023-06-14T01:51:09;100015.13;;;14.19;100.00
22283;BME280;11310;51.528;21.204;2023-06-14T01:53:38;100013.91;;;14.24;100.00
22283;BME280;11310;51.528;21.204;2023-06-14T01:56:11;100010.16;;;14.28;100.00
22283;BME280;11310;51.528;21.204;2023-06-14T01:58:40;100010.94;;;14.30;100.00
22283;BME280;11310;51.528;21.204;2023-06-14T02:01:10;100020.41;;;14.19;100.00
22283;BME280;11310;51.528;21.204;2023-06-14T02:03:40;100015.97;;;14.19;100.00
22283;BME280;11310;51.528;21.204;2023-06-14T02:06:10;100020.41;;;14.19;100.00
22283;BME280;11310;51.528;21.204;2023-06-14T02:08:40;100018.53;;;14.21;100.00
22283;BME280;11310;51.528;21.204;2023-06-14T02:11:08;100022.03;;;14.21;100.00
22283;BME280;11310;51.528;21.204;2023-06-14T02:13:39;100016.81;;;14.20;100.00
22283;BME280;11310;51.528;21.204;2023-06-14T02:16:08;100018.59;;;14.19;100.00
22283;BME280;11310;51.528;21.204;2023-06-14T02:18:38;100013.63;;;14.15;100.00
22283;BME280;11310;51.528;21.204;2023-06-14T02:21:08;100017.84;;;14.17;100.00
22283;BME280;11310;51.528;21.204;2023-06-14T02:23:37;100017.78;;;14.19;100.00
22283;BME280;11310;51.528;21.204;2023-06-14T02:26:06;100021.25;;;14.19;100.00
22283;BME280;11310;51.528;21.204;2023-06-14T02:28:35;100019.41;;;14.21;100.00
22283;BME280;11310;51.528;21.204;2023-06-14T02:31:09;100026.50;;;14.19;100.00
22283;BME280;11310;51.528;21.204;2023-06-14T02:33:38;100017.72;;;14.20;100.00
22283;BME280;11310;51.528;21.204;2023-06-14T02:36:10;100014.13;;;14.21;100.00
22283;BME280;11310;51.528;21.204;2023-06-14T02:38:39;100014.97;;;14.22;100.00
22283;BME280;11310;51.528;21.204;2023-06-14T02:41:09;100012.22;;;14.23;100.00
22283;BME280;11310;51.528;21.204;2023-06-14T02:43:37;100007.81;;;14.24;100.00
22283;BME280;11310;51.528;21.204;2023-06-14T02:46:10;100013.75;;;14.27;100.00
22283;BME280;11310;51.528;21.204;2023-06-14T02:48:39;100018.06;;;14.28;100.00
22283;BME280;11310;51.528;21.204;2023-06-14T02:51:09;100014.59;;;14.28;100.00
22283;BME280;11310;51.528;21.204;2023-06-14T02:53:38;100008.47;;;14.27;100.00
22283;BME280;11310;51.528;21.204;2023-06-14T02:56:08;100016.25;;;14.15;100.00
22283;BME280;11310;51.528;21.204;2023-06-14T02:58:38;100016.47;;;14.26;100.00
22283;BME280;11310;51.528;21.204;2023-06-14T03:01:08;100015.44;;;14.28;100.00
22283;BME280;11310;51.528;21.204;2023-06-14T03:03:42;100014.28;;;14.18;100.00
22283;BME280;11310;51.528;21.204;2023-06-14T03:06:11;100016.38;;;14.27;100.00
22283;BME280;11310;51.528;21.204;2023-06-14T03:08:43;100012.72;;;14.30;100.00
22283;BME280;11310;51.528;21.204;2023-06-14T03:11:15;100012.78;;;14.28;100.00
22283;BME280;11310;51.528;21.204;2023-06-14T03:13:49;100010.72;;;14.33;100.00
22283;BME280;11310;51.528;21.204;2023-06-14T03:16:22;100014.03;;;14.37;100.00
22283;BME280;11310;51.528;21.204;2023-06-14T03:18:54;100020.84;;;14.41;100.00
22283;BME280;11310;51.528;21.204;2023-06-14T03:21:26;100010.16;;;14.28;100.00
22283;BME280;11310;51.528;21.204;2023-06-14T03:24:01;100017.50;;;14.51;100.00
22283;BME280;11310;51.528;21.204;2023-06-14T03:26:35;100014.53;;;14.43;100.00
22283;BME280;11310;51.528;21.204;2023-06-14T03:29:05;100021.28;;;14.47;100.00
22283;BME280;11310;51.528;21.204;2023-06-14T03:31:34;100025.63;;;14.48;100.00
22283;BME280;11310;51.528;21.204;2023-06-14T03:34:08;100012.44;;;14.48;100.00
22283;BME280;11310;51.528;21.204;2023-06-14T03:36:38;100013.34;;;14.47;100.00
22283;BME280;11310;51.528;21.204;2023-06-14T03:39:07;100015.81;;;14.50;100.00
22283;BME280;11310;51.528;21.204;2023-06-14T03:41:37;100017.78;;;14.61;100.00
22283;BME280;11310;51.528;21.204;2023-06-14T03:44:06;100014.97;;;14.64;100.00
22283;BME280;11310;51.528;21.204;2023-06-14T03:46:35;100025.53;;;14.64;100.00
22283;BME280;11310;51.528;21.204;2023-06-14T03:49:05;100028.91;;;14.66;100.00
22283;BME280;11310;51.528;21.204;2023-06-14T03:51:36;100017.88;;;14.73;100.00
22283;BME280;11310;51.528;21.204;2023-06-14T03:54:08;100022.97;;;14.76;100.00
22283;BME280;11310;51.528;21.204;2023-06-14T03:56:57;100016.66;;;14.79;100.00
22283;BME280;11310;51.528;21.204;2023-06-14T03:59:26;100027.78;;;14.70;100.00
22283;BME280;11310;51.528;21.204;2023-06-14T04:01:56;100023.25;;;14.72;100.00
22283;BME280;11310;51.528;21.204;2023-06-14T04:04:25;100027.38;;;14.76;100.00
22283;BME280;11310;51.528;21.204;2023-06-14T04:06:59;100025.41;;;14.79;100.00
22283;BME280;11310;51.528;21.204;2023-06-14T04:09:30;100035.78;;;14.82;100.00
22283;BME280;11310;51.528;21.204;2023-06-14T04:12:00;100027.66;;;14.85;100.00
22283;BME280;11310;51.528;21.204;2023-06-14T04:14:31;100027.66;;;14.85;100.00
22283;BME280;11310;51.528;21.204;2023-06-14T04:17:01;100025.84;;;14.86;100.00
22283;BME280;11310;51.528;21.204;2023-06-14T04:19:31;100022.16;;;14.88;100.00
22283;BME280;11310;51.528;21.204;2023-06-14T04:22:02;100022.00;;;14.91;100.00
22283;BME280;11310;51.528;21.204;2023-06-14T04:24:34;100030.66;;;14.93;100.00
22283;BME280;11310;51.528;21.204;2023-06-14T04:27:04;100025.19;;;14.96;100.00
22283;BME280;11310;51.528;21.204;2023-06-14T04:29:36;100019.72;;;14.99;100.00
22283;BME280;11310;51.528;21.204;2023-06-14T04:32:11;100028.28;;;15.03;100.00
22283;BME280;11310;51.528;21.204;2023-06-14T04:34:41;100026.84;;;15.11;100.00
22283;BME280;11310;51.528;21.204;2023-06-14T04:37:17;100031.19;;;15.12;100.00
22283;BME280;11310;51.528;21.204;2023-06-14T04:39:46;100035.44;;;15.15;100.00
22283;BME280;11310;51.528;21.204;2023-06-14T04:42:15;100033.53;;;15.17;100.00
22283;BME280;11310;51.528;21.204;2023-06-14T04:44:44;100027.19;;;15.19;100.00
22283;BME280;11310;51.528;21.204;2023-06-14T04:47:14;100016.63;;;15.19;100.00
22283;BME280;11310;51.528;21.204;2023-06-14T04:49:44;100027.84;;;15.23;100.00
22283;BME280;11310;51.528;21.204;2023-06-14T04:52:15;100033.78;;;15.26;100.00
22283;BME280;11310;51.528;21.204;2023-06-14T04:54:47;100033.47;;;15.31;100.00
22283;BME280;11310;51.528;21.204;2023-06-14T04:57:19;100035.88;;;15.35;100.00
22283;BME280;11310;51.528;21.204;2023-06-14T04:59:54;100031.31;;;15.37;100.00
22283;BME280;11310;51.528;21.204;2023-06-14T05:02:27;100026.66;;;15.41;100.00
22283;BME280;11310;51.528;21.204;2023-06-14T05:04:59;100030.91;;;15.43;100.00
22283;BME280;11310;51.528;21.204;2023-06-14T05:07:37;100035.81;;;15.49;100.00
22283;BME280;11310;51.528;21.204;2023-06-14T05:10:09;100038.22;;;15.52;100.00
22283;BME280;11310;51.528;21.204;2023-06-14T05:12:41;100039.00;;;15.54;100.00
22283;BME280;11310;51.528;21.204;2023-06-14T05:15:12;100046.72;;;15.57;100.00
22283;BME280;11310;51.528;21.204;2023-06-14T05:17:45;100042.00;;;15.62;100.00
22283;BME280;11310;51.528;21.204;2023-06-14T05:20:21;100038.59;;;15.73;100.00
22283;BME280;11310;51.528;21.204;2023-06-14T05:22:54;100032.28;;;15.75;100.00
22283;BME280;11310;51.528;21.204;2023-06-14T05:25:23;100039.06;;;15.79;100.00
22283;BME280;11310;51.528;21.204;2023-06-14T05:27:52;100039.06;;;15.79;100.00
22283;BME280;11310;51.528;21.204;2023-06-14T05:30:23;100035.34;;;15.82;100.00
22283;BME280;11310;51.528;21.204;2023-06-14T05:32:54;100037.91;;;15.83;100.00
22283;BME280;11310;51.528;21.204;2023-06-14T05:35:23;100045.75;;;15.85;100.00
22283;BME280;11310;51.528;21.204;2023-06-14T05:37:55;100039.59;;;15.84;100.00
22283;BME280;11310;51.528;21.204;2023-06-14T05:40:24;100047.53;;;15.84;100.00
22283;BME280;11310;51.528;21.204;2023-06-14T05:42:53;100042.91;;;15.88;100.00
22283;BME280;11310;51.528;21.204;2023-06-14T05:45:22;100052.72;;;15.98;100.00
22283;BME280;11310;51.528;21.204;2023-06-14T05:47:51;100046.72;;;16.09;100.00
22283;BME280;11310;51.528;21.204;2023-06-14T05:50:22;100046.72;;;16.21;100.00
22283;BME280;11310;51.528;21.204;2023-06-14T05:52:55;100051.81;;;16.24;100.00
22283;BME280;11310;51.528;21.204;2023-06-14T05:55:24;100048.97;;;16.27;100.00
22283;BME280;11310;51.528;21.204;2023-06-14T05:57:53;100044.19;;;16.32;100.00
22283;BME280;11310;51.528;21.204;2023-06-14T06:00:22;100050.13;;;16.36;100.00
22283;BME280;11310;51.528;21.204;2023-06-14T06:02:54;100050.75;;;16.39;100.00
22283;BME280;11310;51.528;21.204;2023-06-14T06:05:25;100043.59;;;16.41;100.00
22283;BME280;11310;51.528;21.204;2023-06-14T06:07:59;100049.63;;;16.43;100.00
22283;BME280;11310;51.528;21.204;2023-06-14T06:10:30;100046.88;;;16.45;100.00
22283;BME280;11310;51.528;21.204;2023-06-14T06:13:04;100048.69;;;16.44;100.00
22283;BME280;11310;51.528;21.204;2023-06-14T06:15:35;100053.03;;;16.45;100.00
22283;BME280;11310;51.528;21.204;2023-06-14T06:18:04;100057.78;;;16.53;100.00
22283;BME280;11310;51.528;21.204;2023-06-14T06:20:36;100062.66;;;16.59;100.00
22283;BME280;11310;51.528;21.204;2023-06-14T06:23:06;100070.81;;;16.68;100.00
22283;BME280;11310;51.528;21.204;2023-06-14T06:25:37;100060.09;;;16.82;100.00
22283;BME280;11310;51.528;21.204;2023-06-14T06:28:05;100054.75;;;16.95;100.00
22283;BME280;11310;51.528;21.204;2023-06-14T06:30:34;100067.88;;;17.09;100.00
22283;BME280;11310;51.528;21.204;2023-06-14T06:33:03;100065.41;;;17.18;100.00
22283;BME280;11310;51.528;21.204;2023-06-14T06:35:32;100063.59;;;17.19;100.00
22283;BME280;11310;51.528;21.204;2023-06-14T06:38:01;100065.16;;;17.21;100.00
22283;BME280;11310;51.528;21.204;2023-06-14T06:40:34;100067.81;;;17.21;100.00
22283;BME280;11310;51.528;21.204;2023-06-14T06:43:03;100070.91;;;17.15;100.00
22283;BME280;11310;51.528;21.204;2023-06-14T06:45:40;100070.63;;;17.07;100.00
22283;BME280;11310;51.528;21.204;2023-06-14T06:48:10;100075.09;;;17.07;100.00
22283;BME280;11310;51.528;21.204;2023-06-14T06:50:39;100083.16;;;17.05;100.00
22283;BME280;11310;51.528;21.204;2023-06-14T06:53:08;100085.91;;;17.04;100.00
22283;BME280;11310;51.528;21.204;2023-06-14T06:55:39;100084.84;;;17.06;100.00
22283;BME280;11310;51.528;21.204;2023-06-14T06:58:11;100080.28;;;17.08;100.00
22283;BME280;11310;51.528;21.204;2023-06-14T07:00:41;100088.09;;;17.10;100.00
22283;BME280;11310;51.528;21.204;2023-06-14T07:03:10;100081.00;;;17.10;100.00
22283;BME280;11310;51.528;21.204;2023-06-14T07:05:40;100082.50;;;17.14;100.00
22283;BME280;11310;51.528;21.204;2023-06-14T07:08:09;100082.25;;;17.17;100.00
22283;BME280;11310;51.528;21.204;2023-06-14T07:10:39;100085.22;;;17.25;100.00
22283;BME280;11310;51.528;21.204;2023-06-14T07:13:09;100079.47;;;17.31;100.00
22283;BME280;11310;51.528;21.204;2023-06-14T07:15:39;100085.16;;;17.38;100.00
22283;BME280;11310;51.528;21.204;2023-06-14T07:18:09;100078.84;;;17.40;100.00
22283;BME280;11310;51.528;21.204;2023-06-14T07:20:44;100072.69;;;17.40;100.00
22283;BME280;11310;51.528;21.204;2023-06-14T07:23:15;100078.91;;;17.39;100.00
22283;BME280;11310;51.528;21.204;2023-06-14T07:25:46;100068.63;;;17.34;100.00
22283;BME280;11310;51.528;21.204;2023-06-14T07:28:17;100071.63;;;17.30;100.00
22283;BME280;11310;51.528;21.204;2023-06-14T07:30:46;100073.22;;;17.32;100.00
22283;BME280;11310;51.528;21.204;2023-06-14T07:33:16;100075.63;;;17.35;100.00
22283;BME280;11310;51.528;21.204;2023-06-14T07:35:44;100078.59;;;17.43;100.00
22283;BME280;11310;51.528;21.204;2023-06-14T07:38:13;100083.44;;;17.49;100.00
22283;BME280;11310;51.528;21.204;2023-06-14T07:40:42;100088.31;;;17.55;100.00
22283;BME280;11310;51.528;21.204;2023-06-14T07:43:12;100076.53;;;17.59;100.00
22283;BME280;11310;51.528;21.204;2023-06-14T07:45:44;100081.59;;;17.62;100.00
22283;BME280;11310;51.528;21.204;2023-06-14T07:48:32;100083.81;;;17.68;100.00
22283;BME280;11310;51.528;21.204;2023-06-14T07:51:02;100087.19;;;17.70;100.00
22283;BME280;11310;51.528;21.204;2023-06-14T07:53:34;100091.19;;;17.76;100.00
22283;BME280;11310;51.528;21.204;2023-06-14T07:56:04;100085.22;;;17.85;100.00
22283;BME280;11310;51.528;21.204;2023-06-14T07:58:35;100094.88;;;17.97;100.00
22283;BME280;11310;51.528;21.204;2023-06-14T08:01:05;100087.19;;;18.05;100.00
22283;BME280;11310;51.528;21.204;2023-06-14T08:03:35;100088.31;;;18.13;100.00
22283;BME280;11310;51.528;21.204;2023-06-14T08:06:04;100093.44;;;18.27;100.00
22283;BME280;11310;51.528;21.204;2023-06-14T08:08:36;100092.28;;;18.42;100.00
22283;BME280;11310;51.528;21.204;2023-06-14T08:11:05;100096.91;;;18.51;99.08
22283;BME280;11310;51.528;21.204;2023-06-14T08:13:35;100094.34;;;18.50;98.42
22283;BME280;11310;51.528;21.204;2023-06-14T08:16:05;100094.34;;;18.50;98.01
22283;BME280;11310;51.528;21.204;2023-06-14T08:18:36;100101.94;;;18.43;97.92
22283;BME280;11310;51.528;21.204;2023-06-14T08:21:06;100110.13;;;18.40;98.26
22283;BME280;11310;51.528;21.204;2023-06-14T08:23:35;100105.09;;;18.37;99.05
22283;BME280;11310;51.528;21.204;2023-06-14T08:26:05;100100.38;;;18.41;98.58
22283;BME280;11310;51.528;21.204;2023-06-14T08:28:36;100092.28;;;18.42;98.69
22283;BME280;11310;51.528;21.204;2023-06-14T08:31:05;100090.59;;;18.41;98.12
22283;BME280;11310;51.528;21.204;2023-06-14T08:33:37;100088.66;;;18.43;98.10
22283;BME280;11310;51.528;21.204;2023-06-14T08:36:11;100082.03;;;18.49;97.48
22283;BME280;11310;51.528;21.204;2023-06-14T08:38:41;100076.25;;;18.55;97.66
22283;BME280;11310;51.528;21.204;2023-06-14T08:41:12;100084.59;;;18.61;97.65
22283;BME280;11310;51.528;21.204;2023-06-14T08:43:47;100076.50;;;18.74;97.52
22283;BME280;11310;51.528;21.204;2023-06-14T08:46:18;100072.88;;;18.86;96.22
22283;BME280;11310;51.528;21.204;2023-06-14T08:48:52;100082.53;;;18.87;96.08
22283;BME280;11310;51.528;21.204;2023-06-14T08:51:26;100080.72;;;18.87;96.07
22283;BME280;11310;51.528;21.204;2023-06-14T08:54:03;100087.75;;;18.88;96.10
22283;BME280;11310;51.528;21.204;2023-06-14T08:56:32;100083.13;;;18.90;96.09
22283;BME280;11310;51.528;21.204;2023-06-14T08:59:06;100079.50;;;19.02;96.24
22283;BME280;11310;51.528;21.204;2023-06-14T09:01:37;100083.00;;;19.14;95.34
22283;BME280;11310;51.528;21.204;2023-06-14T09:04:06;100080.81;;;19.19;95.23
22283;BME280;11310;51.528;21.204;2023-06-14T09:06:37;100084.34;;;19.19;94.51
22283;BME280;11310;51.528;21.204;2023-06-14T09:09:06;100073.69;;;19.19;94.45
22283;BME280;11310;51.528;21.204;2023-06-14T09:11:35;100075.88;;;19.25;94.32
22283;BME280;11310;51.528;21.204;2023-06-14T09:14:05;100073.94;;;19.38;94.51
22283;BME280;11310;51.528;21.204;2023-06-14T09:16:35;100081.38;;;19.55;94.26
22283;BME280;11310;51.528;21.204;2023-06-14T09:19:03;100076.47;;;19.71;93.18
22283;BME280;11310;51.528;21.204;2023-06-14T09:21:37;100076.69;;;19.79;92.46
22283;BME280;11310;51.528;21.204;2023-06-14T09:24:06;100082.03;;;19.79;92.51
22283;BME280;11310;51.528;21.204;2023-06-14T09:26:39;100078.78;;;19.76;92.73
22283;BME280;11310;51.528;21.204;2023-06-14T09:29:13;100072.97;;;19.71;92.87
22283;BME280;11310;51.528;21.204;2023-06-14T09:31:46;100068.63;;;19.70;93.15
22283;BME280;11310;51.528;21.204;2023-06-14T09:34:17;100067.78;;;19.69;92.87
22283;BME280;11310;51.528;21.204;2023-06-14T09:36:54;100068.84;;;19.78;92.52
22283;BME280;11310;51.528;21.204;2023-06-14T09:39:23;100066.63;;;19.83;91.96
22283;BME280;11310;51.528;21.204;2023-06-14T09:41:52;100063.44;;;19.89;91.54
22283;BME280;11310;51.528;21.204;2023-06-14T09:44:26;100067.22;;;19.86;91.99
22283;BME280;11310;51.528;21.204;2023-06-14T09:46:57;100059.22;;;19.86;91.89
22283;BME280;11310;51.528;21.204;2023-06-14T09:49:27;100057.00;;;19.91;92.33
22283;BME280;11310;51.528;21.204;2023-06-14T09:52:00;100065.75;;;19.93;91.88
22283;BME280;11310;51.528;21.204;2023-06-14T09:54:29;100069.22;;;19.94;92.07
22283;BME280;11310;51.528;21.204;2023-06-14T09:56:59;100068.97;;;19.97;92.88
22283;BME280;11310;51.528;21.204;2023-06-14T09:59:31;100063.06;;;19.93;91.97
22283;BME280;11310;51.528;21.204;2023-06-14T10:02:09;100057.78;;;19.82;92.12
22283;BME280;11310;51.528;21.204;2023-06-14T10:04:42;100059.75;;;19.80;92.62
22283;BME280;11310;51.528;21.204;2023-06-14T10:07:18;100061.44;;;19.81;92.24
22283;BME280;11310;51.528;21.204;2023-06-14T10:09:48;100063.59;;;19.87;91.80
22283;BME280;11310;51.528;21.204;2023-06-14T10:12:18;100063.78;;;19.95;91.07
22283;BME280;11310;51.528;21.204;2023-06-14T10:14:51;100060.34;;;20.04;90.32
22283;BME280;11310;51.528;21.204;2023-06-14T10:17:30;100062.66;;;20.09;90.18
22283;BME280;11310;51.528;21.204;2023-06-14T10:20:23;100061.78;;;20.19;90.45
22283;BME280;11310;51.528;21.204;2023-06-14T10:22:59;100056.22;;;20.32;89.94
22283;BME280;11310;51.528;21.204;2023-06-14T10:25:31;100057.38;;;20.39;89.28
22283;BME280;11310;51.528;21.204;2023-06-14T10:28:14;100060.25;;;20.47;88.70
22283;BME280;11310;51.528;21.204;2023-06-14T10:31:06;100054.38;;;20.53;88.34
22283;BME280;11310;51.528;21.204;2023-06-14T10:33:39;100059.06;;;20.60;88.60
22283;BME280;11310;51.528;21.204;2023-06-14T10:36:28;100057.22;;;20.61;88.08
22283;BME280;11310;51.528;21.204;2023-06-14T10:39:04;100044.22;;;20.67;88.03
22283;BME280;11310;51.528;21.204;2023-06-14T10:41:37;100045.22;;;20.76;87.32
22283;BME280;11310;51.528;21.204;2023-06-14T10:44:37;100038.94;;;20.86;86.59
22283;BME280;11310;51.528;21.204;2023-06-14T10:47:21;100034.69;;;20.95;86.60
22283;BME280;11310;51.528;21.204;2023-06-14T10:49:53;100035.25;;;21.08;85.83
22283;BME280;11310;51.528;21.204;2023-06-14T10:52:26;100031.63;;;21.19;85.24
22283;BME280;11310;51.528;21.204;2023-06-14T10:55:08;100031.38;;;21.31;85.08
22283;BME280;11310;51.528;21.204;2023-06-14T10:57:40;100033.06;;;21.42;83.46
22283;BME280;11310;51.528;21.204;2023-06-14T11:00:14;100028.47;;;21.44;83.28
22283;BME280;11310;51.528;21.204;2023-06-14T11:06:14;100013.44;;;22.09;82.66
22283;BME280;11310;51.528;21.204;2023-06-14T11:11:55;100010.47;;;22.22;81.33
22283;BME280;11310;51.528;21.204;2023-06-14T11:14:29;100010.88;;;22.27;80.24
22283;BME280;11310;51.528;21.204;2023-06-14T11:17:05;100010.00;;;22.26;79.80
22283;BME280;11310;51.528;21.204;2023-06-14T11:19:35;100001.63;;;22.12;80.29
22283;BME280;11310;51.528;21.204;2023-06-14T11:22:08;100011.34;;;21.94;80.55
22283;BME280;11310;51.528;21.204;2023-06-14T11:24:38;100014.00;;;21.75;82.07
22283;BME280;11310;51.528;21.204;2023-06-14T11:27:09;100015.09;;;21.53;82.50
22283;BME280;11310;51.528;21.204;2023-06-14T11:29:47;99998.22;;;21.34;82.70
22283;BME280;11310;51.528;21.204;2023-06-14T11:32:18;100004.94;;;21.19;83.84
22283;BME280;11310;51.528;21.204;2023-06-14T11:34:47;99995.41;;;21.07;84.67
22283;BME280;11310;51.528;21.204;2023-06-14T11:37:22;99997.59;;;20.92;85.57
22283;BME280;11310;51.528;21.204;2023-06-14T11:39:56;99998.06;;;20.76;86.46
22283;BME280;11310;51.528;21.204;2023-06-14T11:42:27;100002.53;;;20.66;87.14
22283;BME280;11310;51.528;21.204;2023-06-14T11:44:56;100001.22;;;20.51;87.56
22283;BME280;11310;51.528;21.204;2023-06-14T11:47:41;100008.25;;;20.32;87.94
22283;BME280;11310;51.528;21.204;2023-06-14T11:50:10;100008.47;;;20.19;88.38
22283;BME280;11310;51.528;21.204;2023-06-14T11:52:41;100005.50;;;20.13;88.89
22283;BME280;11310;51.528;21.204;2023-06-14T11:55:09;100005.06;;;20.08;89.25
22283;BME280;11310;51.528;21.204;2023-06-14T11:57:38;100005.13;;;20.06;88.69
22283;BME280;11310;51.528;21.204;2023-06-14T12:00:08;100008.75;;;20.05;87.93
22283;BME280;11310;51.528;21.204;2023-06-14T12:02:39;100002.47;;;20.06;87.41
22283;BME280;11310;51.528;21.204;2023-06-14T12:05:09;99999.56;;;20.09;87.42
22283;BME280;11310;51.528;21.204;2023-06-14T12:07:39;100009.97;;;20.12;87.32
22283;BME280;11310;51.528;21.204;2023-06-14T12:10:14;100001.72;;;20.15;86.69
22283;BME280;11310;51.528;21.204;2023-06-14T12:12:44;100001.44;;;20.18;85.93
22283;BME280;11310;51.528;21.204;2023-06-14T12:15:32;100002.31;;;20.19;85.86
22283;BME280;11310;51.528;21.204;2023-06-14T12:18:00;99998.78;;;20.18;85.53
22283;BME280;11310;51.528;21.204;2023-06-14T12:20:30;99993.19;;;20.21;85.13
22283;BME280;11310;51.528;21.204;2023-06-14T12:23:02;99995.59;;;20.24;82.23
22283;BME280;11310;51.528;21.204;2023-06-14T12:25:35;99990.72;;;20.29;84.06
22283;BME280;11310;51.528;21.204;2023-06-14T12:28:09;99999.16;;;20.34;83.87
22283;BME280;11310;51.528;21.204;2023-06-14T12:31:15;99993.72;;;20.45;82.60
22283;BME280;11310;51.528;21.204;2023-06-14T12:33:50;99988.03;;;20.59;82.55
22283;BME280;11310;51.528;21.204;2023-06-14T12:36:20;99984.03;;;20.74;81.43
22283;BME280;11310;51.528;21.204;2023-06-14T12:39:03;99987.72;;;20.83;79.93
22283;BME280;11310;51.528;21.204;2023-06-14T12:41:36;99982.44;;;20.93;79.02
22283;BME280;11310;51.528;21.204;2023-06-14T12:44:06;99973.47;;;21.03;78.28
22283;BME280;11310;51.528;21.204;2023-06-14T12:46:36;99975.03;;;21.15;77.78
22283;BME280;11310;51.528;21.204;2023-06-14T12:49:09;99969.03;;;21.32;77.69
22283;BME280;11310;51.528;21.204;2023-06-14T12:51:40;99962.84;;;21.51;76.54
22283;BME280;11310;51.528;21.204;2023-06-14T12:54:12;99966.25;;;21.72;74.67
22283;BME280;11310;51.528;21.204;2023-06-14T12:57:09;99967.75;;;21.84;70.48
22283;BME280;11310;51.528;21.204;2023-06-14T12:59:43;99965.38;;;21.81;72.34
22283;BME280;11310;51.528;21.204;2023-06-14T13:02:13;99973.41;;;21.81;71.62
22283;BME280;11310;51.528;21.204;2023-06-14T13:04:42;99974.66;;;21.77;71.51
22283;BME280;11310;51.528;21.204;2023-06-14T13:07:12;99965.53;;;21.70;71.18